Costa Romantica — IBCR — position and weather

sailwx.info

Track history (hours):
 
Tides and Currents Weather Stations Pressure Air Temp Water Temp Dewpoint Dewpoint Depression Visibility Wind Speed Wind Dir Waves Ship Positions

Costa Romantica

Last reported at 2020-Mar-21 11:29 UTC. Time now 2020-Apr-05 06:33 UTC.
Position N 37°10' E 129°47'.
Warning: this ship's position is 14 days out of date.

Length 221 m; draft 7.7 m.

Type: Ship. MMSI: 247817000.

Date/timePositionNaut miles runAvg speedWind from/ knotsBaromVisibWave heightAir tempDewpointWater temp
2020-Mar-21 11:29N 37°10' E 129°47'142 4.7
2020-Mar-20 05:31N 34°49' E 129°59'4 1.3
2020-Mar-20 02:31N 34°48' E 129°54'34 8.6
2020-Mar-19 22:31N 34°15' E 129°43'23 7.7
2020-Mar-19 19:31N 33°59' E 129°22'2 6.7
2020-Mar-19 19:16N 33°58' E 129°21'28 8.6
2020-Mar-19 16:01N 33°36' E 128°60'16 9.6
2020-Mar-19 14:17N 33°23' E 129°12'7 9.3
2020-Mar-19 13:33N 33°17' E 129°16'310.1
2020-Mar-19 13:17N 33°15' E 129°16'4010.0
2020-Mar-19 09:18N 32°44' E 129°46'5 1.7
2020-Mar-19 06:18N 32°44' E 129°52'0 0.0
2020-Mar-19 04:48N 32°44' E 129°52'0 0.0
2020-Mar-19 04:03N 32°44' E 129°52'0 0.0
2020-Mar-19 03:18N 32°44' E 129°52'0 0.0
2020-Mar-18 23:34N 32°44' E 129°52'0 0.0
2020-Mar-18 19:46N 32°44' E 129°52'0 0.0
2020-Mar-18 18:16N 32°44' E 129°52'0 0.0
2020-Mar-18 13:17N 32°44' E 129°52'0 0.0
2020-Mar-18 09:17N 32°44' E 129°52'0 0.0
2020-Mar-18 08:32N 32°44' E 129°52'0 0.0
2020-Mar-18 03:16N 32°44' E 129°52'0 0.0
2020-Mar-18 01:48N 32°44' E 129°52'0 0.0
2020-Mar-17 17:31N 32°44' E 129°52'0 0.0
2020-Mar-17 16:01N 32°44' E 129°52'0 0.0
2020-Mar-17 12:31N 32°44' E 129°52'0 0.0
2020-Mar-17 10:16N 32°44' E 129°52'0 0.0
2020-Mar-17 05:46N 32°44' E 129°52'0 0.0
2020-Mar-17 00:31N 32°44' E 129°52'0 0.0
2020-Mar-16 19:16N 32°44' E 129°52'0 0.0
2020-Mar-16 17:01N 32°44' E 129°52'0 0.0
2020-Mar-16 14:31N 32°44' E 129°52'0 0.0
2020-Mar-16 11:31N 32°44' E 129°52'0 0.0
2020-Mar-16 06:16N 32°44' E 129°52'0 0.0
2020-Mar-16 05:31N 32°44' E 129°52'0 0.0
2020-Mar-16 03:16N 32°44' E 129°52'34 6.5
2020-Mar-15 22:01N 32°32' E 129°14'6 7.7
2020-Mar-15 21:16N 32°29' E 129°08'6 7.6
2020-Mar-15 20:31N 32°27' E 129°02'6 7.5
2020-Mar-15 19:46N 32°24' E 128°56'88 3.6
2020-Mar-14 19:15N 33°52' E 129°05'25 7.1
2020-Mar-14 15:45N 34°08' E 129°27'2010.0
2020-Mar-14 13:45N 34°22' E 129°45'58 1.3
2020-Mar-12 16:30N 33°35' E 129°02'2 4.1
2020-Mar-12 16:00N 33°34' E 129°04'  
Track history (hours):
 
Tides and Currents Weather Stations Pressure Air Temp Water Temp Dewpoint Dewpoint Depression Visibility Wind Speed Wind Dir Waves Ship Positions

Costa Romantica

Last reported at 2020-Mar-21 11:29 UTC. Time now 2020-Apr-05 06:33 UTC.
Position N 37°10' E 129°47'.
Warning: this ship's position is 14 days out of date.

Length 221 m; draft 7.7 m.

Type: Ship. MMSI: 247817000.

Date/timePositionNaut miles runAvg speedWind from/ knotsBaromVisibWave heightAir tempDewpointWater temp
2020-Mar-21 11:29N 37°10' E 129°47'142 4.7
2020-Mar-20 05:31N 34°49' E 129°59'4 1.3
2020-Mar-20 02:31N 34°48' E 129°54'34 8.6
2020-Mar-19 22:31N 34°15' E 129°43'23 7.7
2020-Mar-19 19:31N 33°59' E 129°22'2 6.7
2020-Mar-19 19:16N 33°58' E 129°21'28 8.6
2020-Mar-19 16:01N 33°36' E 128°60'16 9.6
2020-Mar-19 14:17N 33°23' E 129°12'7 9.3
2020-Mar-19 13:33N 33°17' E 129°16'310.1
2020-Mar-19 13:17N 33°15' E 129°16'4010.0
2020-Mar-19 09:18N 32°44' E 129°46'5 1.7
2020-Mar-19 06:18N 32°44' E 129°52'0 0.0
2020-Mar-19 04:48N 32°44' E 129°52'0 0.0
2020-Mar-19 04:03N 32°44' E 129°52'0 0.0
2020-Mar-19 03:18N 32°44' E 129°52'0 0.0
2020-Mar-18 23:34N 32°44' E 129°52'0 0.0
2020-Mar-18 19:46N 32°44' E 129°52'0 0.0
2020-Mar-18 18:16N 32°44' E 129°52'0 0.0
2020-Mar-18 13:17N 32°44' E 129°52'0 0.0
2020-Mar-18 09:17N 32°44' E 129°52'0 0.0
2020-Mar-18 08:32N 32°44' E 129°52'0 0.0
2020-Mar-18 03:16N 32°44' E 129°52'0 0.0
2020-Mar-18 01:48N 32°44' E 129°52'0 0.0
2020-Mar-17 17:31N 32°44' E 129°52'0 0.0
2020-Mar-17 16:01N 32°44' E 129°52'0 0.0
2020-Mar-17 12:31N 32°44' E 129°52'0 0.0
2020-Mar-17 10:16N 32°44' E 129°52'0 0.0
2020-Mar-17 05:46N 32°44' E 129°52'0 0.0
2020-Mar-17 00:31N 32°44' E 129°52'0 0.0
2020-Mar-16 19:16N 32°44' E 129°52'0 0.0
2020-Mar-16 17:01N 32°44' E 129°52'0 0.0
2020-Mar-16 14:31N 32°44' E 129°52'0 0.0
2020-Mar-16 11:31N 32°44' E 129°52'0 0.0
2020-Mar-16 06:16N 32°44' E 129°52'0 0.0
2020-Mar-16 05:31N 32°44' E 129°52'0 0.0
2020-Mar-16 03:16N 32°44' E 129°52'34 6.5
2020-Mar-15 22:01N 32°32' E 129°14'6 7.7
2020-Mar-15 21:16N 32°29' E 129°08'6 7.6
2020-Mar-15 20:31N 32°27' E 129°02'6 7.5
2020-Mar-15 19:46N 32°24' E 128°56'88 3.6
2020-Mar-14 19:15N 33°52' E 129°05'25 7.1
2020-Mar-14 15:45N 34°08' E 129°27'2010.0
2020-Mar-14 13:45N 34°22' E 129°45'58 1.3
2020-Mar-12 16:30N 33°35' E 129°02'2 4.1
2020-Mar-12 16:00N 33°34' E 129°04'  

Dump ship's entire track history